sensor_id;sensor_type;location;lat;lon;timestamp;pressure;altitude;pressure_sealevel;temperature;humidity
42105;BME280;70664;51.472;5.712;2024-02-04T00:00:32;102199.31;;;17.30;64.91
42105;BME280;70664;51.472;5.712;2024-02-04T00:02:57;102214.03;;;17.28;64.99
42105;BME280;70664;51.472;5.712;2024-02-04T00:05:23;102208.00;;;17.28;64.64
42105;BME280;70664;51.472;5.712;2024-02-04T00:07:49;102205.38;;;17.28;64.33
42105;BME280;70664;51.472;5.712;2024-02-04T00:10:15;102204.53;;;17.26;64.93
42105;BME280;70664;51.472;5.712;2024-02-04T00:12:42;102203.66;;;17.25;64.91
42105;BME280;70664;51.472;5.712;2024-02-04T00:15:08;102199.31;;;17.24;64.59
42105;BME280;70664;51.472;5.712;2024-02-04T00:17:34;102195.88;;;17.20;64.50
42105;BME280;70664;51.472;5.712;2024-02-04T00:20:01;102205.38;;;17.20;64.53
42105;BME280;70664;51.472;5.712;2024-02-04T00:22:28;102212.34;;;17.16;64.63
42105;BME280;70664;51.472;5.712;2024-02-04T00:24:54;102208.00;;;17.18;64.79
42105;BME280;70664;51.472;5.712;2024-02-04T00:27:19;102209.72;;;17.18;64.61
42105;BME280;70664;51.472;5.712;2024-02-04T00:29:45;102215.81;;;17.14;64.94
42105;BME280;70664;51.472;5.712;2024-02-04T00:32:11;102205.44;;;17.14;64.77
42105;BME280;70664;51.472;5.712;2024-02-04T00:34:37;102205.41;;;17.12;64.70
42105;BME280;70664;51.472;5.712;2024-02-04T00:37:03;102208.88;;;17.11;64.65
42105;BME280;70664;51.472;5.712;2024-02-04T00:39:29;102203.69;;;17.10;64.89
42105;BME280;70664;51.472;5.712;2024-02-04T00:41:54;102199.34;;;17.07;64.85
42105;BME280;70664;51.472;5.712;2024-02-04T00:44:20;102205.44;;;17.07;64.61
42105;BME280;70664;51.472;5.712;2024-02-04T00:46:46;102212.34;;;17.05;64.76
42105;BME280;70664;51.472;5.712;2024-02-04T00:49:12;102206.28;;;17.06;64.62
42105;BME280;70664;51.472;5.712;2024-02-04T00:51:37;102206.31;;;17.03;64.89
42105;BME280;70664;51.472;5.712;2024-02-04T00:54:03;102213.22;;;17.03;64.74
42105;BME280;70664;51.472;5.712;2024-02-04T00:56:29;102207.16;;;17.02;64.68
42105;BME280;70664;51.472;5.712;2024-02-04T00:58:55;102202.84;;;17.00;65.05
42105;BME280;70664;51.472;5.712;2024-02-04T01:01:21;102211.50;;;17.00;64.71
42105;BME280;70664;51.472;5.712;2024-02-04T01:03:46;102221.03;;;17.00;64.88
42105;BME280;70664;51.472;5.712;2024-02-04T01:06:12;102220.16;;;16.99;64.71
42105;BME280;70664;51.472;5.712;2024-02-04T01:08:38;102218.44;;;16.98;64.59
42105;BME280;70664;51.472;5.712;2024-02-04T01:11:07;102219.28;;;16.97;64.88
42105;BME280;70664;51.472;5.712;2024-02-04T01:13:32;102221.00;;;16.95;65.09
42105;BME280;70664;51.472;5.712;2024-02-04T01:15:58;102215.81;;;16.93;65.04
42105;BME280;70664;51.472;5.712;2024-02-04T01:18:24;102215.81;;;16.93;65.08
42105;BME280;70664;51.472;5.712;2024-02-04T01:20:50;102209.75;;;16.91;64.90
42105;BME280;70664;51.472;5.712;2024-02-04T01:23:16;102213.19;;;16.92;65.04
42105;BME280;70664;51.472;5.712;2024-02-04T01:25:45;102204.53;;;16.90;64.75
42105;BME280;70664;51.472;5.712;2024-02-04T01:28:11;102208.00;;;16.90;64.99
42105;BME280;70664;51.472;5.712;2024-02-04T01:30:37;102208.88;;;16.89;65.06
42105;BME280;70664;51.472;5.712;2024-02-04T01:33:03;102208.88;;;16.88;65.10
42105;BME280;70664;51.472;5.712;2024-02-04T01:35:29;102212.34;;;16.87;64.73
42105;BME280;70664;51.472;5.712;2024-02-04T01:37:55;102211.50;;;16.85;65.04
42105;BME280;70664;51.472;5.712;2024-02-04T01:40:20;102195.03;;;16.84;65.10
42105;BME280;70664;51.472;5.712;2024-02-04T01:42:46;102201.09;;;16.85;65.08
42105;BME280;70664;51.472;5.712;2024-02-04T01:45:12;102203.69;;;16.82;65.05
42105;BME280;70664;51.472;5.712;2024-02-04T01:47:38;102199.38;;;16.81;65.09
42105;BME280;70664;51.472;5.712;2024-02-04T01:50:05;102209.75;;;16.81;65.03
42105;BME280;70664;51.472;5.712;2024-02-04T01:52:33;102202.81;;;16.81;64.78
42105;BME280;70664;51.472;5.712;2024-02-04T01:55:01;102201.09;;;16.78;65.09
42105;BME280;70664;51.472;5.712;2024-02-04T01:57:28;102203.69;;;16.78;65.18
42105;BME280;70664;51.472;5.712;2024-02-04T01:59:55;102200.25;;;16.76;64.96
42105;BME280;70664;51.472;5.712;2024-02-04T02:02:23;102201.94;;;16.76;65.19
42105;BME280;70664;51.472;5.712;2024-02-04T02:04:50;102204.56;;;16.74;65.08
42105;BME280;70664;51.472;5.712;2024-02-04T02:07:18;102196.78;;;16.74;65.18
42105;BME280;70664;51.472;5.712;2024-02-04T02:09:47;102196.75;;;16.73;65.09
42105;BME280;70664;51.472;5.712;2024-02-04T02:12:29;102201.09;;;16.72;64.92
42105;BME280;70664;51.472;5.712;2024-02-04T02:15:18;102203.72;;;16.71;65.21
42105;BME280;70664;51.472;5.712;2024-02-04T02:20:31;102212.38;;;16.70;65.03
42105;BME280;70664;51.472;5.712;2024-02-04T02:23:08;102205.44;;;16.70;65.15
42105;BME280;70664;51.472;5.712;2024-02-04T02:25:38;102200.22;;;16.67;65.01
42105;BME280;70664;51.472;5.712;2024-02-04T02:28:04;102198.50;;;16.66;65.32
42105;BME280;70664;51.472;5.712;2024-02-04T02:30:30;102208.88;;;16.66;65.23
42105;BME280;70664;51.472;5.712;2024-02-04T02:32:56;102201.09;;;16.66;64.97
42105;BME280;70664;51.472;5.712;2024-02-04T02:35:23;102205.44;;;16.66;64.90
42105;BME280;70664;51.472;5.712;2024-02-04T02:38:33;102185.53;;;16.63;64.97
42105;BME280;70664;51.472;5.712;2024-02-04T02:41:06;102195.06;;;16.62;64.90
42105;BME280;70664;51.472;5.712;2024-02-04T02:43:33;102184.66;;;16.64;64.79
42105;BME280;70664;51.472;5.712;2024-02-04T02:46:00;102194.16;;;16.62;64.90
42105;BME280;70664;51.472;5.712;2024-02-04T02:48:27;102193.31;;;16.61;65.17
42105;BME280;70664;51.472;5.712;2024-02-04T02:50:54;102207.16;;;16.59;65.36
42105;BME280;70664;51.472;5.712;2024-02-04T02:53:19;102197.66;;;16.59;65.33
42105;BME280;70664;51.472;5.712;2024-02-04T02:55:46;102185.50;;;16.60;65.11
42105;BME280;70664;51.472;5.712;2024-02-04T02:58:13;102187.25;;;16.59;65.02
42105;BME280;70664;51.472;5.712;2024-02-04T03:00:39;102187.28;;;16.58;65.41
42105;BME280;70664;51.472;5.712;2024-02-04T03:03:05;102183.78;;;16.57;65.30
42105;BME280;70664;51.472;5.712;2024-02-04T03:05:31;102182.06;;;16.56;65.34
42105;BME280;70664;51.472;5.712;2024-02-04T03:07:58;102178.63;;;16.56;65.25
42105;BME280;70664;51.472;5.712;2024-02-04T03:10:24;102189.00;;;16.56;65.18
42105;BME280;70664;51.472;5.712;2024-02-04T03:12:50;102180.34;;;16.55;65.22
42105;BME280;70664;51.472;5.712;2024-02-04T03:15:16;102182.06;;;16.53;65.32
42105;BME280;70664;51.472;5.712;2024-02-04T03:17:43;102185.53;;;16.54;65.34
42105;BME280;70664;51.472;5.712;2024-02-04T03:20:10;102187.28;;;16.52;65.02
42105;BME280;70664;51.472;5.712;2024-02-04T03:22:36;102188.97;;;16.51;65.08
42105;BME280;70664;51.472;5.712;2024-02-04T03:25:01;102195.91;;;16.51;65.37
42105;BME280;70664;51.472;5.712;2024-02-04T03:27:28;102200.22;;;16.50;65.33
42105;BME280;70664;51.472;5.712;2024-02-04T03:29:53;102188.13;;;16.49;65.22
42105;BME280;70664;51.472;5.712;2024-02-04T03:32:19;102182.91;;;16.49;65.40
42105;BME280;70664;51.472;5.712;2024-02-04T03:34:45;102181.19;;;16.48;65.32
42105;BME280;70664;51.472;5.712;2024-02-04T03:37:11;102165.63;;;16.46;65.35
42105;BME280;70664;51.472;5.712;2024-02-04T03:39:36;102169.09;;;16.45;65.31
42105;BME280;70664;51.472;5.712;2024-02-04T03:42:02;102179.47;;;16.45;65.40
42105;BME280;70664;51.472;5.712;2024-02-04T03:44:28;102166.50;;;16.45;65.07
42105;BME280;70664;51.472;5.712;2024-02-04T03:46:54;102176.88;;;16.44;65.54
42105;BME280;70664;51.472;5.712;2024-02-04T03:49:20;102175.16;;;16.44;65.35
42105;BME280;70664;51.472;5.712;2024-02-04T03:51:46;102187.28;;;16.44;65.40
42105;BME280;70664;51.472;5.712;2024-02-04T03:54:13;102185.53;;;16.43;65.08
42105;BME280;70664;51.472;5.712;2024-02-04T03:56:38;102183.78;;;16.43;65.18
42105;BME280;70664;51.472;5.712;2024-02-04T03:59:04;102177.75;;;16.43;65.36
42105;BME280;70664;51.472;5.712;2024-02-04T04:01:32;102177.75;;;16.41;65.44
42105;BME280;70664;51.472;5.712;2024-02-04T04:03:58;102170.81;;;16.40;65.35
42105;BME280;70664;51.472;5.712;2024-02-04T04:06:23;102174.28;;;16.39;65.21
42105;BME280;70664;51.472;5.712;2024-02-04T04:08:49;102176.88;;;16.39;65.05
42105;BME280;70664;51.472;5.712;2024-02-04T04:11:16;102182.94;;;16.40;65.08
42105;BME280;70664;51.472;5.712;2024-02-04T04:13:41;102187.25;;;16.38;65.36
42105;BME280;70664;51.472;5.712;2024-02-04T04:16:07;102191.56;;;16.37;65.31
42105;BME280;70664;51.472;5.712;2024-02-04T04:18:33;102191.59;;;16.36;65.24
42105;BME280;70664;51.472;5.712;2024-02-04T04:20:59;102202.81;;;16.36;65.42
42105;BME280;70664;51.472;5.712;2024-02-04T04:23:25;102199.38;;;16.36;65.10
42105;BME280;70664;51.472;5.712;2024-02-04T04:25:50;102195.91;;;16.35;65.14
42105;BME280;70664;51.472;5.712;2024-02-04T04:28:16;102195.03;;;16.35;65.14
42105;BME280;70664;51.472;5.712;2024-02-04T04:30:42;102196.75;;;16.34;65.56
42105;BME280;70664;51.472;5.712;2024-02-04T04:33:08;102195.03;;;16.33;65.36
42105;BME280;70664;51.472;5.712;2024-02-04T04:35:34;102184.66;;;16.33;65.45
42105;BME280;70664;51.472;5.712;2024-02-04T04:38:00;102173.41;;;16.32;65.52
42105;BME280;70664;51.472;5.712;2024-02-04T04:40:26;102171.69;;;16.31;65.20
42105;BME280;70664;51.472;5.712;2024-02-04T04:42:52;102155.22;;;16.31;64.96
42105;BME280;70664;51.472;5.712;2024-02-04T04:45:17;102136.22;;;16.30;65.23
42105;BME280;70664;51.472;5.712;2024-02-04T04:47:43;102150.03;;;16.29;65.47
42105;BME280;70664;51.472;5.712;2024-02-04T04:50:09;102152.66;;;16.29;65.45
42105;BME280;70664;51.472;5.712;2024-02-04T04:52:35;102146.59;;;16.29;65.28
42105;BME280;70664;51.472;5.712;2024-02-04T04:55:01;102134.50;;;16.28;65.22
42105;BME280;70664;51.472;5.712;2024-02-04T04:57:28;102125.84;;;16.26;65.34
42105;BME280;70664;51.472;5.712;2024-02-04T04:59:53;102133.59;;;16.27;65.24
42105;BME280;70664;51.472;5.712;2024-02-04T05:02:19;102138.81;;;16.27;65.58
42105;BME280;70664;51.472;5.712;2024-02-04T05:04:45;102141.41;;;16.26;65.10
42105;BME280;70664;51.472;5.712;2024-02-04T05:07:11;102143.97;;;16.24;65.70
42105;BME280;70664;51.472;5.712;2024-02-04T05:09:37;102148.31;;;16.25;65.53
42105;BME280;70664;51.472;5.712;2024-02-04T05:12:04;102140.53;;;16.24;65.59
42105;BME280;70664;51.472;5.712;2024-02-04T05:14:29;102124.97;;;16.24;65.57
42105;BME280;70664;51.472;5.712;2024-02-04T05:16:55;102132.75;;;16.22;65.19
42105;BME280;70664;51.472;5.712;2024-02-04T05:19:21;102124.94;;;16.22;65.26
42105;BME280;70664;51.472;5.712;2024-02-04T05:21:47;102147.47;;;16.22;65.29
42105;BME280;70664;51.472;5.712;2024-02-04T05:24:13;102137.06;;;16.22;65.16
42105;BME280;70664;51.472;5.712;2024-02-04T05:26:39;102120.63;;;16.20;65.51
42105;BME280;70664;51.472;5.712;2024-02-04T05:29:04;102118.03;;;16.20;65.19
42105;BME280;70664;51.472;5.712;2024-02-04T05:31:30;102112.84;;;16.18;65.44
42105;BME280;70664;51.472;5.712;2024-02-04T05:33:56;102118.03;;;16.18;65.66
42105;BME280;70664;51.472;5.712;2024-02-04T05:36:22;102124.97;;;16.17;65.48
42105;BME280;70664;51.472;5.712;2024-02-04T05:38:48;102128.41;;;16.18;65.23
42105;BME280;70664;51.472;5.712;2024-02-04T05:41:14;102135.34;;;16.16;65.73
42105;BME280;70664;51.472;5.712;2024-02-04T05:43:40;102131.00;;;16.16;65.64
42105;BME280;70664;51.472;5.712;2024-02-04T05:46:05;102127.56;;;16.14;65.65
42105;BME280;70664;51.472;5.712;2024-02-04T05:48:31;102117.16;;;16.14;65.39
42105;BME280;70664;51.472;5.712;2024-02-04T05:50:57;102114.56;;;16.14;65.36
42105;BME280;70664;51.472;5.712;2024-02-04T05:53:23;102124.09;;;16.14;65.33
42105;BME280;70664;51.472;5.712;2024-02-04T05:55:49;102110.25;;;16.13;65.42
42105;BME280;70664;51.472;5.712;2024-02-04T05:58:14;102119.78;;;16.13;65.42
42105;BME280;70664;51.472;5.712;2024-02-04T06:00:40;102124.97;;;16.13;65.52
42105;BME280;70664;51.472;5.712;2024-02-04T06:03:07;102121.50;;;16.12;65.54
42105;BME280;70664;51.472;5.712;2024-02-04T06:05:33;102129.28;;;16.11;65.45
42105;BME280;70664;51.472;5.712;2024-02-04T06:07:58;102131.88;;;16.11;65.44
42105;BME280;70664;51.472;5.712;2024-02-04T06:10:24;102130.16;;;16.10;65.57
42105;BME280;70664;51.472;5.712;2024-02-04T06:12:50;102123.22;;;16.10;65.63
42105;BME280;70664;51.472;5.712;2024-02-04T06:15:16;102117.19;;;16.10;65.77
42105;BME280;70664;51.472;5.712;2024-02-04T06:17:43;102125.81;;;16.09;65.85
42105;BME280;70664;51.472;5.712;2024-02-04T06:20:09;102118.03;;;16.09;65.59
42105;BME280;70664;51.472;5.712;2024-02-04T06:22:36;102123.22;;;16.09;65.49
42105;BME280;70664;51.472;5.712;2024-02-04T06:25:06;102115.44;;;16.07;65.48
42105;BME280;70664;51.472;5.712;2024-02-04T06:27:32;102117.19;;;16.07;65.73
42105;BME280;70664;51.472;5.712;2024-02-04T06:29:57;102105.91;;;16.06;65.49
42105;BME280;70664;51.472;5.712;2024-02-04T06:32:23;102099.00;;;16.05;65.56
42105;BME280;70664;51.472;5.712;2024-02-04T06:34:51;102104.19;;;16.03;65.65
42105;BME280;70664;51.472;5.712;2024-02-04T06:37:17;102093.81;;;16.03;65.79
42105;BME280;70664;51.472;5.712;2024-02-04T06:39:43;102097.25;;;16.04;65.53
42105;BME280;70664;51.472;5.712;2024-02-04T06:42:08;102084.28;;;16.04;65.60
42105;BME280;70664;51.472;5.712;2024-02-04T06:44:34;102082.56;;;16.03;65.41
42105;BME280;70664;51.472;5.712;2024-02-04T06:47:00;102086.06;;;16.02;65.59
42105;BME280;70664;51.472;5.712;2024-02-04T06:49:26;102085.16;;;16.01;65.53
42105;BME280;70664;51.472;5.712;2024-02-04T06:51:52;102096.41;;;16.00;66.01
42105;BME280;70664;51.472;5.712;2024-02-04T06:54:24;102086.03;;;16.00;65.65
42105;BME280;70664;51.472;5.712;2024-02-04T06:56:51;102095.56;;;16.00;65.73
42105;BME280;70664;51.472;5.712;2024-02-04T06:59:18;102081.72;;;15.99;65.83
42105;BME280;70664;51.472;5.712;2024-02-04T07:01:44;102091.22;;;15.99;65.66
42105;BME280;70664;51.472;5.712;2024-02-04T07:04:10;102099.88;;;15.99;65.87
42105;BME280;70664;51.472;5.712;2024-02-04T07:06:35;102089.50;;;15.98;65.47
42105;BME280;70664;51.472;5.712;2024-02-04T07:09:01;102094.66;;;15.96;65.62
42105;BME280;70664;51.472;5.712;2024-02-04T07:11:27;102098.16;;;15.97;65.71
42105;BME280;70664;51.472;5.712;2024-02-04T07:13:53;102100.75;;;15.97;65.62
42105;BME280;70664;51.472;5.712;2024-02-04T07:16:25;102111.97;;;15.96;65.78
42105;BME280;70664;51.472;5.712;2024-02-04T07:18:55;102106.78;;;15.96;65.91
42105;BME280;70664;51.472;5.712;2024-02-04T07:21:21;102105.91;;;15.95;65.85
42105;BME280;70664;51.472;5.712;2024-02-04T07:23:47;102118.88;;;15.95;65.78
42105;BME280;70664;51.472;5.712;2024-02-04T07:26:21;102112.84;;;15.95;65.88
42105;BME280;70664;51.472;5.712;2024-02-04T07:28:49;102111.09;;;15.94;65.50
42105;BME280;70664;51.472;5.712;2024-02-04T07:31:15;102107.63;;;15.93;65.77
42105;BME280;70664;51.472;5.712;2024-02-04T07:33:41;102114.56;;;15.93;65.75
42105;BME280;70664;51.472;5.712;2024-02-04T07:36:16;102115.44;;;15.92;65.66
42105;BME280;70664;51.472;5.712;2024-02-04T07:38:42;102110.22;;;15.90;65.76
42105;BME280;70664;51.472;5.712;2024-02-04T07:41:07;102100.72;;;15.91;65.92
42105;BME280;70664;51.472;5.712;2024-02-04T07:43:35;102096.38;;;15.91;65.46
42105;BME280;70664;51.472;5.712;2024-02-04T07:46:14;102098.13;;;15.91;65.63
42105;BME280;70664;51.472;5.712;2024-02-04T07:48:40;102099.84;;;15.90;65.69
42105;BME280;70664;51.472;5.712;2024-02-04T07:51:11;102108.50;;;15.91;65.53
42105;BME280;70664;51.472;5.712;2024-02-04T07:53:40;102102.44;;;15.90;65.87
42105;BME280;70664;51.472;5.712;2024-02-04T07:56:14;102093.81;;;15.88;65.54
42105;BME280;70664;51.472;5.712;2024-02-04T07:58:40;102103.31;;;15.87;65.72
42105;BME280;70664;51.472;5.712;2024-02-04T08:01:09;102098.13;;;15.87;65.77
42105;BME280;70664;51.472;5.712;2024-02-04T08:03:35;102094.69;;;15.87;65.74
42105;BME280;70664;51.472;5.712;2024-02-04T08:06:05;102098.97;;;15.86;65.88
42105;BME280;70664;51.472;5.712;2024-02-04T08:08:31;102093.81;;;15.86;65.98
42105;BME280;70664;51.472;5.712;2024-02-04T08:10:57;102096.41;;;15.86;65.98
42105;BME280;70664;51.472;5.712;2024-02-04T08:13:23;102104.16;;;15.85;65.78
42105;BME280;70664;51.472;5.712;2024-02-04T08:15:49;102088.59;;;15.85;65.71
42105;BME280;70664;51.472;5.712;2024-02-04T08:18:15;102085.97;;;15.83;65.60
42105;BME280;70664;51.472;5.712;2024-02-04T08:20:41;102089.47;;;15.84;66.03
42105;BME280;70664;51.472;5.712;2024-02-04T08:23:06;102088.56;;;15.83;65.68
42105;BME280;70664;51.472;5.712;2024-02-04T08:25:33;102088.56;;;15.83;65.72
42105;BME280;70664;51.472;5.712;2024-02-04T08:28:07;102079.06;;;15.82;65.69
42105;BME280;70664;51.472;5.712;2024-02-04T08:30:33;102068.69;;;15.81;65.90
42105;BME280;70664;51.472;5.712;2024-02-04T08:32:59;102070.44;;;15.82;65.70
42105;BME280;70664;51.472;5.712;2024-02-04T08:35:25;102074.75;;;15.81;65.78
42105;BME280;70664;51.472;5.712;2024-02-04T08:37:51;102073.00;;;15.80;65.93
42105;BME280;70664;51.472;5.712;2024-02-04T08:40:20;102076.47;;;15.81;65.82
42105;BME280;70664;51.472;5.712;2024-02-04T08:42:46;102072.16;;;15.80;65.65
42105;BME280;70664;51.472;5.712;2024-02-04T08:45:12;102076.47;;;15.79;65.76
42105;BME280;70664;51.472;5.712;2024-02-04T08:47:37;102075.63;;;15.79;65.63
42105;BME280;70664;51.472;5.712;2024-02-04T08:50:04;102088.56;;;15.79;65.92
42105;BME280;70664;51.472;5.712;2024-02-04T08:52:30;102096.34;;;15.77;66.09
42105;BME280;70664;51.472;5.712;2024-02-04T08:54:59;102097.22;;;15.78;65.68
42105;BME280;70664;51.472;5.712;2024-02-04T08:57:25;102096.34;;;15.77;65.93
42105;BME280;70664;51.472;5.712;2024-02-04T08:59:51;102098.06;;;15.77;66.16
42105;BME280;70664;51.472;5.712;2024-02-04T09:02:17;102091.16;;;15.76;65.79
42105;BME280;70664;51.472;5.712;2024-02-04T09:04:43;102102.38;;;15.76;65.84
42105;BME280;70664;51.472;5.712;2024-02-04T09:07:09;102110.16;;;15.76;65.95
42105;BME280;70664;51.472;5.712;2024-02-04T09:09:35;102107.59;;;15.75;65.73
42105;BME280;70664;51.472;5.712;2024-02-04T09:12:01;102103.25;;;15.73;65.97
42105;BME280;70664;51.472;5.712;2024-02-04T09:14:27;102105.84;;;15.73;66.07
42105;BME280;70664;51.472;5.712;2024-02-04T09:16:53;102108.44;;;15.73;65.84
42105;BME280;70664;51.472;5.712;2024-02-04T09:19:19;102112.75;;;15.75;65.75
42105;BME280;70664;51.472;5.712;2024-02-04T09:21:44;102111.03;;;15.73;65.95
42105;BME280;70664;51.472;5.712;2024-02-04T09:24:10;102118.81;;;15.72;65.73
42105;BME280;70664;51.472;5.712;2024-02-04T09:26:36;102115.34;;;15.71;66.05
42105;BME280;70664;51.472;5.712;2024-02-04T09:29:02;102110.16;;;15.71;66.30
42105;BME280;70664;51.472;5.712;2024-02-04T09:31:28;102115.34;;;15.71;65.81
42105;BME280;70664;51.472;5.712;2024-02-04T09:33:54;102112.75;;;15.71;66.02
42105;BME280;70664;51.472;5.712;2024-02-04T09:36:19;102102.38;;;15.71;66.06
42105;BME280;70664;51.472;5.712;2024-02-04T09:38:50;102104.97;;;15.71;66.21
42105;BME280;70664;51.472;5.712;2024-02-04T09:41:16;102103.25;;;15.70;65.78
42105;BME280;70664;51.472;5.712;2024-02-04T09:43:42;102093.75;;;15.71;66.02
42105;BME280;70664;51.472;5.712;2024-02-04T09:46:09;102103.25;;;15.70;65.85
42105;BME280;70664;51.472;5.712;2024-02-04T09:48:36;102097.19;;;15.68;65.91
42105;BME280;70664;51.472;5.712;2024-02-04T09:51:04;102100.66;;;15.69;65.67
42105;BME280;70664;51.472;5.712;2024-02-04T09:53:44;102101.53;;;15.68;65.87
42105;BME280;70664;51.472;5.712;2024-02-04T09:56:12;102095.47;;;15.67;65.97
42105;BME280;70664;51.472;5.712;2024-02-04T09:58:41;102089.41;;;15.67;66.05
42105;BME280;70664;51.472;5.712;2024-02-04T10:01:11;102086.84;;;15.67;66.27
42105;BME280;70664;51.472;5.712;2024-02-04T10:03:38;102092.88;;;15.66;65.90
42105;BME280;70664;51.472;5.712;2024-02-04T10:06:04;102085.94;;;15.66;66.05
42105;BME280;70664;51.472;5.712;2024-02-04T10:08:30;102095.44;;;15.64;66.21
42105;BME280;70664;51.472;5.712;2024-02-04T10:10:56;102090.25;;;15.64;65.96
42105;BME280;70664;51.472;5.712;2024-02-04T10:13:29;102092.84;;;15.64;66.06
42105;BME280;70664;51.472;5.712;2024-02-04T10:15:55;102096.31;;;15.63;66.20
42105;BME280;70664;51.472;5.712;2024-02-04T10:18:24;102101.50;;;15.63;66.24
42105;BME280;70664;51.472;5.712;2024-02-04T10:20:57;102103.22;;;15.63;66.20
42105;BME280;70664;51.472;5.712;2024-02-04T10:23:22;102104.09;;;15.63;66.14
42105;BME280;70664;51.472;5.712;2024-02-04T10:25:59;102101.50;;;15.62;66.16
42105;BME280;70664;51.472;5.712;2024-02-04T10:28:25;102110.13;;;15.62;66.38
42105;BME280;70664;51.472;5.712;2024-02-04T10:30:55;102104.97;;;15.64;66.01
42105;BME280;70664;51.472;5.712;2024-02-04T10:33:24;102104.09;;;15.62;66.44
42105;BME280;70664;51.472;5.712;2024-02-04T10:35:50;102098.91;;;15.62;66.15
42105;BME280;70664;51.472;5.712;2024-02-04T10:38:15;102103.25;;;15.61;66.17
42105;BME280;70664;51.472;5.712;2024-02-04T10:40:41;102110.13;;;15.62;66.38
42105;BME280;70664;51.472;5.712;2024-02-04T10:43:07;102105.81;;;15.60;66.42
42105;BME280;70664;51.472;5.712;2024-02-04T10:45:41;102106.69;;;15.63;66.13
42105;BME280;70664;51.472;5.712;2024-02-04T10:48:08;102109.28;;;15.62;66.30
42105;BME280;70664;51.472;5.712;2024-02-04T10:50:38;102111.00;;;15.60;66.45
42105;BME280;70664;51.472;5.712;2024-02-04T10:53:05;102103.22;;;15.58;66.68
42105;BME280;70664;51.472;5.712;2024-02-04T10:55:40;102109.28;;;15.58;66.78
42105;BME280;70664;51.472;5.712;2024-02-04T10:58:07;102104.97;;;15.59;67.36
42105;BME280;70664;51.472;5.712;2024-02-04T11:00:34;102110.13;;;15.57;68.28
42105;BME280;70664;51.472;5.712;2024-02-04T11:03:00;102105.81;;;15.58;69.38
42105;BME280;70664;51.472;5.712;2024-02-04T11:05:29;102093.72;;;15.57;69.11
42105;BME280;70664;51.472;5.712;2024-02-04T11:07:56;102088.53;;;15.58;69.20
42105;BME280;70664;51.472;5.712;2024-02-04T11:10:24;102085.94;;;15.57;69.19
42105;BME280;70664;51.472;5.712;2024-02-04T11:12:51;102086.78;;;15.57;69.45
42105;BME280;70664;51.472;5.712;2024-02-04T11:15:19;102091.97;;;15.57;69.68
42105;BME280;70664;51.472;5.712;2024-02-04T11:26:12;102074.72;;;15.66;69.85
42105;BME280;70664;51.472;5.712;2024-02-04T11:28:38;102067.81;;;15.69;69.92
42105;BME280;70664;51.472;5.712;2024-02-04T11:31:12;102069.56;;;15.72;70.05
42105;BME280;70664;51.472;5.712;2024-02-04T11:33:38;102061.78;;;15.73;70.21
42105;BME280;70664;51.472;5.712;2024-02-04T11:36:05;102056.59;;;15.75;69.96
42105;BME280;70664;51.472;5.712;2024-02-04T11:38:36;102053.13;;;15.78;69.90
42105;BME280;70664;51.472;5.712;2024-02-04T11:41:06;102056.59;;;15.80;70.06
42105;BME280;70664;51.472;5.712;2024-02-04T11:43:37;102056.59;;;15.84;69.95
42105;BME280;70664;51.472;5.712;2024-02-04T11:46:06;102061.81;;;15.87;69.84
42105;BME280;70664;51.472;5.712;2024-02-04T11:48:35;102049.72;;;15.93;69.78
42105;BME280;70664;51.472;5.712;2024-02-04T11:51:05;102055.78;;;15.95;69.61
42105;BME280;70664;51.472;5.712;2024-02-04T11:53:31;102055.78;;;15.99;69.32
42105;BME280;70664;51.472;5.712;2024-02-04T11:56:00;102056.63;;;16.05;68.94
42105;BME280;70664;51.472;5.712;2024-02-04T11:58:27;102054.03;;;16.09;69.10
42105;BME280;70664;51.472;5.712;2024-02-04T12:00:56;102057.50;;;16.13;68.87
42105;BME280;70664;51.472;5.712;2024-02-04T12:03:32;102054.03;;;16.15;68.88
42105;BME280;70664;51.472;5.712;2024-02-04T12:05:59;102045.38;;;16.16;68.75
42105;BME280;70664;51.472;5.712;2024-02-04T12:08:28;102047.09;;;16.19;68.54
42105;BME280;70664;51.472;5.712;2024-02-04T12:10:54;102040.19;;;16.23;68.44
42105;BME280;70664;51.472;5.712;2024-02-04T12:13:20;102030.66;;;16.29;68.36
42105;BME280;70664;51.472;5.712;2024-02-04T12:15:49;102028.91;;;16.33;68.05
42105;BME280;70664;51.472;5.712;2024-02-04T12:18:15;102022.88;;;16.31;68.42
42105;BME280;70664;51.472;5.712;2024-02-04T12:20:46;102020.25;;;16.40;67.66
42105;BME280;70664;51.472;5.712;2024-02-04T12:23:14;102015.94;;;16.39;68.25
42105;BME280;70664;51.472;5.712;2024-02-04T12:25:40;102016.81;;;16.41;67.64
42105;BME280;70664;51.472;5.712;2024-02-04T12:28:06;102025.44;;;16.45;67.83
42105;BME280;70664;51.472;5.712;2024-02-04T12:30:32;102025.44;;;16.50;67.42
42105;BME280;70664;51.472;5.712;2024-02-04T12:33:04;102021.09;;;16.62;66.94
42105;BME280;70664;51.472;5.712;2024-02-04T12:35:31;102025.41;;;16.67;67.33
42105;BME280;70664;51.472;5.712;2024-02-04T12:37:59;102023.66;;;16.70;67.32
42105;BME280;70664;51.472;5.712;2024-02-04T12:40:30;102021.03;;;16.76;67.22
42105;BME280;70664;51.472;5.712;2024-02-04T12:43:00;102024.47;;;16.83;66.90
42105;BME280;70664;51.472;5.712;2024-02-04T12:45:30;102018.41;;;16.86;66.73
42105;BME280;70664;51.472;5.712;2024-02-04T12:47:58;102012.31;;;16.87;66.75
42105;BME280;70664;51.472;5.712;2024-02-04T12:50:25;102014.09;;;16.85;67.12
42105;BME280;70664;51.472;5.712;2024-02-04T12:53:08;102000.19;;;16.92;66.71
42105;BME280;70664;51.472;5.712;2024-02-04T12:55:37;101994.97;;;16.92;66.66
42105;BME280;70664;51.472;5.712;2024-02-04T12:58:08;101988.94;;;16.87;66.67
42105;BME280;70664;51.472;5.712;2024-02-04T13:00:36;101980.31;;;16.85;66.51